createdAt,value
2022-11-10T07:43:04.769Z,1.30
2022-11-10T07:45:32.404Z,1.50
2022-11-10T07:48:03.305Z,1.77
2022-11-10T07:50:30.335Z,1.40
2022-11-10T07:53:08.012Z,1.65
2022-11-10T07:55:35.697Z,1.77
2022-11-10T07:58:02.968Z,1.50
2022-11-10T08:00:30.050Z,1.60
2022-11-10T08:03:02.510Z,2.03
2022-11-10T08:05:29.570Z,1.70
2022-11-10T08:07:56.664Z,1.80
2022-11-10T08:10:23.763Z,1.70
2022-11-10T08:12:54.753Z,1.90
2022-11-10T08:15:21.813Z,1.80
2022-11-10T08:17:49.073Z,1.73
2022-11-10T08:20:16.358Z,2.10
2022-11-10T08:22:43.690Z,1.83
2022-11-10T08:25:10.704Z,1.70
2022-11-10T08:27:37.766Z,1.77
2022-11-10T08:30:09.879Z,1.70
2022-11-10T08:35:20.240Z,1.85
2022-11-10T08:37:47.258Z,1.60
2022-11-10T08:40:15.380Z,1.90
2022-11-10T08:42:42.616Z,1.88
2022-11-10T08:45:09.802Z,1.70
2022-11-10T08:47:36.963Z,1.83
2022-11-10T08:50:04.271Z,1.50
2022-11-10T08:56:45.381Z,2.03
2022-11-10T08:59:12.484Z,1.55
2022-11-10T09:01:39.529Z,1.67
2022-11-10T09:04:08.975Z,1.50
2022-11-10T09:06:36.137Z,1.50
2022-11-10T09:09:03.269Z,1.42
2022-11-10T09:11:30.812Z,0.97
2022-11-10T09:13:57.968Z,1.10
2022-11-10T09:16:25.008Z,1.05
2022-11-10T09:18:52.119Z,1.20
2022-11-10T09:21:19.185Z,0.80
2022-11-10T09:23:46.323Z,1.08
2022-11-10T09:26:13.390Z,1.00
2022-11-10T09:28:40.562Z,1.23
2022-11-10T09:31:07.696Z,0.90
2022-11-10T09:33:34.790Z,1.10
2022-11-10T09:36:02.685Z,0.80
2022-11-10T09:38:29.719Z,0.70
2022-11-10T09:40:56.796Z,0.63
2022-11-10T09:43:34.690Z,0.60
2022-11-10T09:46:04.591Z,0.50
2022-11-10T09:48:33.707Z,0.80
2022-11-10T09:51:06.571Z,0.70
2022-11-10T09:53:39.660Z,0.52
2022-11-10T09:56:07.747Z,0.52
2022-11-10T09:58:44.817Z,0.57
2022-11-10T10:01:35.098Z,0.45
2022-11-10T10:04:17.275Z,0.80
2022-11-10T10:07:10.295Z,0.80
2022-11-10T10:09:43.713Z,0.80
2022-11-10T10:12:22.305Z,0.40
2022-11-10T10:15:01.870Z,0.73
2022-11-10T10:17:39.795Z,0.60
2022-11-10T10:20:27.325Z,0.80
2022-11-10T10:23:09.729Z,0.80
2022-11-10T10:25:38.878Z,0.85
2022-11-10T10:28:08.656Z,1.10
2022-11-10T10:30:35.737Z,0.93
2022-11-10T10:33:12.330Z,1.13
2022-11-10T10:35:42.060Z,1.10
2022-11-10T10:38:28.961Z,1.10
2022-11-10T10:40:59.592Z,1.23
2022-11-10T10:43:28.938Z,1.13
2022-11-10T10:46:06.564Z,1.20
2022-11-10T10:48:33.767Z,1.40
2022-11-10T10:51:01.055Z,1.20
2022-11-10T10:53:28.190Z,1.20
2022-11-10T10:56:14.215Z,1.30
2022-11-10T10:58:52.435Z,1.60
2022-11-10T11:01:19.529Z,1.65
2022-11-10T11:03:47.749Z,1.48
2022-11-10T11:06:14.783Z,1.50
2022-11-10T11:09:00.848Z,1.73
2022-11-10T11:11:46.782Z,1.70
2022-11-10T11:14:24.150Z,1.77
2022-11-10T11:16:56.338Z,1.80
2022-11-10T11:19:25.974Z,1.60
2022-11-10T11:21:56.131Z,1.60
2022-11-10T11:24:23.138Z,1.58
2022-11-10T11:26:50.298Z,1.60
2022-11-10T11:29:23.584Z,1.63
2022-11-10T11:31:59.651Z,1.70
2022-11-10T11:34:38.972Z,1.73
2022-11-10T11:37:16.563Z,1.60
2022-11-10T11:40:21.531Z,1.80
2022-11-10T11:42:54.806Z,1.77
2022-11-10T11:45:39.915Z,1.77
2022-11-10T11:48:26.160Z,1.75
2022-11-10T11:50:58.773Z,1.80
2022-11-10T11:53:39.882Z,1.70
2022-11-10T11:56:17.031Z,1.55
2022-11-10T11:58:55.685Z,1.95
2022-11-10T12:01:31.031Z,1.80
2022-11-10T12:03:58.012Z,1.88
2022-11-10T12:06:25.045Z,1.90
2022-11-10T12:08:58.243Z,1.90
2022-11-10T12:11:34.348Z,1.88
2022-11-10T12:14:01.400Z,1.75
2022-11-10T12:16:33.360Z,1.70
2022-11-10T12:19:21.792Z,1.90
2022-11-10T12:22:00.149Z,2.08
2022-11-10T12:24:33.442Z,1.90
2022-11-10T12:27:03.838Z,1.77
2022-11-10T12:29:33.770Z,1.65
2022-11-10T12:32:08.314Z,1.73
2022-11-10T12:34:43.848Z,1.50
2022-11-10T12:37:15.667Z,1.92
2022-11-10T12:39:46.956Z,1.63
2022-11-10T12:42:22.524Z,1.65
2022-11-10T12:44:49.719Z,1.88
2022-11-10T12:47:19.506Z,1.70
2022-11-10T12:50:06.795Z,1.80
2022-11-10T12:52:38.051Z,1.80
2022-11-10T12:55:05.273Z,1.60
2022-11-10T12:57:32.574Z,1.90
2022-11-10T13:00:01.579Z,1.70
2022-11-10T13:02:34.563Z,1.83
2022-11-10T13:05:20.410Z,2.10
2022-11-10T13:07:49.322Z,2.03
2022-11-10T13:10:19.494Z,1.80
2022-11-10T13:13:04.817Z,1.75
2022-11-10T13:15:38.112Z,1.80
2022-11-10T13:18:25.412Z,1.80
2022-11-10T13:20:53.513Z,1.90
2022-11-10T13:23:30.505Z,2.15
2022-11-10T13:26:26.959Z,2.00
2022-11-10T13:28:58.206Z,1.85
2022-11-10T13:31:28.741Z,2.00
2022-11-10T13:34:01.949Z,2.05
2022-11-10T13:36:55.292Z,2.10
2022-11-10T13:39:22.903Z,2.17
2022-11-10T13:42:05.330Z,1.80
2022-11-10T13:44:39.831Z,2.10
2022-11-10T13:47:10.205Z,2.10
2022-11-10T13:49:52.466Z,1.95
2022-11-10T13:52:22.286Z,2.10
2022-11-10T13:54:59.137Z,2.17
2022-11-10T13:57:37.341Z,2.08
2022-11-10T14:00:18.055Z,2.00
2022-11-10T14:02:45.136Z,2.60
2022-11-10T14:05:31.250Z,2.20
2022-11-10T14:08:03.821Z,2.58
2022-11-10T14:10:39.184Z,2.43
2022-11-10T14:13:12.095Z,2.40
2022-11-10T14:15:52.821Z,2.58
